Time;durP1;ratioP1;P1;durP2;ratioP2;P2;SDS_P1;SDS_P2;PMS_P1;PMS_P2;Temp;Humidity;BMP_temperature;BMP_pressure;BME280_temperature;BME280_humidity;BME280_pressure;Samples;Min_cycle;Max_cycle;Signal;HPM_P1;HPM_P2
2021/07/20 00:00:18;;;;;;;29.00;13.40;;;16.00;43.50;;;;;;5070738;28;20928;-76
2021/07/20 00:02:44;;;;;;;25.45;13.93;;;16.10;43.20;;;;;;5072021;28;20368;-77
2021/07/20 00:05:12;;;;;;;28.58;13.40;;;16.10;42.80;;;;;;5076070;28;20412;-78
2021/07/20 00:07:39;;;;;;;24.13;13.73;;;16.10;42.40;;;;;;5075394;28;20388;-78
2021/07/20 00:10:13;;;;;;;29.05;15.00;;;16.10;42.80;;;;;;5075773;28;20439;-77
2021/07/20 00:12:40;;;;;;;26.05;13.38;;;15.90;43.00;;;;;;5073401;28;20467;-78
2021/07/20 00:15:08;;;;;;;23.10;13.55;;;15.90;43.40;;;;;;5074635;28;20395;-75
2021/07/20 00:17:34;;;;;;;24.60;14.23;;;15.90;43.60;;;;;;5070132;28;20468;-77
2021/07/20 00:20:02;;;;;;;29.02;14.50;;;15.90;43.70;;;;;;5070104;28;20384;-76
2021/07/20 00:22:28;;;;;;;25.15;13.70;;;15.70;44.60;;;;;;5070406;28;20441;-75
2021/07/20 00:24:53;;;;;;;21.63;13.35;;;15.70;44.60;;;;;;5073233;28;20415;-77
2021/07/20 00:27:19;;;;;;;26.30;13.30;;;15.70;44.70;;;;;;5073833;28;20440;-76
2021/07/20 00:29:45;;;;;;;23.40;13.03;;;15.60;45.60;;;;;;5058994;28;20873;-75
2021/07/20 00:32:10;;;;;;;25.10;14.70;;;15.60;46.00;;;;;;5053939;28;20944;-75
2021/07/20 00:34:38;;;;;;;27.70;14.70;;;15.60;45.90;;;;;;5068142;28;20446;-77
2021/07/20 00:37:04;;;;;;;24.38;13.30;;;15.60;46.50;;;;;;5073610;28;20388;-77
2021/07/20 00:39:30;;;;;;;33.72;14.70;;;15.50;47.00;;;;;;5074172;28;20749;-76
2021/07/20 00:41:56;;;;;;;25.70;13.70;;;15.40;47.70;;;;;;5074209;28;20379;-75
2021/07/20 00:44:21;;;;;;;25.13;13.70;;;15.30;48.20;;;;;;5074542;28;20487;-77
2021/07/20 00:46:47;;;;;;;29.77;15.10;;;15.20;49.00;;;;;;5075148;28;20953;-76
2021/07/20 00:49:13;;;;;;;28.23;15.20;;;15.10;49.70;;;;;;5073055;28;20390;-77
2021/07/20 00:51:38;;;;;;;28.70;14.63;;;15.20;49.00;;;;;;5075492;28;20452;-75
2021/07/20 00:54:04;;;;;;;29.02;15.18;;;15.30;48.40;;;;;;5075419;28;20396;-76
2021/07/20 00:56:32;;;;;;;24.13;14.57;;;15.20;48.70;;;;;;5073797;28;20411;-76
2021/07/20 00:58:58;;;;;;;24.98;14.13;;;15.20;48.60;;;;;;5073343;28;20392;-75
2021/07/20 01:01:24;;;;;;;27.83;15.05;;;15.00;49.50;;;;;;5072989;28;20386;-76
2021/07/20 01:03:50;;;;;;;31.00;14.40;;;15.00;49.20;;;;;;5073377;28;20399;-76
2021/07/20 01:06:19;;;;;;;26.73;13.52;;;15.00;49.50;;;;;;5073622;28;20379;-77
2021/07/20 01:08:45;;;;;;;31.95;15.68;;;15.00;49.60;;;;;;5073355;28;20380;-77
2021/07/20 01:11:11;;;;;;;27.23;14.35;;;14.90;50.00;;;;;;5073654;28;20371;-77
2021/07/20 01:13:38;;;;;;;28.00;14.90;;;14.90;50.20;;;;;;5072813;28;20906;-76
2021/07/20 01:16:04;;;;;;;30.70;15.30;;;14.90;50.60;;;;;;5072688;28;20395;-73
2021/07/20 01:18:31;;;;;;;29.97;15.17;;;14.80;51.00;;;;;;5073228;28;20470;-76
2021/07/20 01:20:57;;;;;;;28.95;15.15;;;14.80;51.10;;;;;;5072874;28;20379;-75
2021/07/20 01:23:37;;;;;;;32.60;16.17;;;14.70;51.70;;;;;;5072640;28;20912;-76
2021/07/20 01:26:04;;;;;;;32.70;16.35;;;14.70;52.20;;;;;;5072093;28;21105;-76
2021/07/20 01:28:31;;;;;;;27.90;15.05;;;14.60;52.50;;;;;;5060058;28;20412;-76
2021/07/20 01:31:01;;;;;;;34.85;15.18;;;14.70;52.90;;;;;;5073206;28;20380;-76
2021/07/20 01:33:30;;;;;;;28.40;14.90;;;14.60;52.90;;;;;;5069712;28;20854;-76
2021/07/20 01:35:58;;;;;;;35.20;15.93;;;14.70;53.20;;;;;;5069951;28;20415;-76
2021/07/20 01:38:25;;;;;;;28.63;16.00;;;14.60;53.30;;;;;;5072956;28;20384;-76
2021/07/20 01:40:56;;;;;;;29.40;15.80;;;14.70;53.00;;;;;;5073387;28;20448;-77
2021/07/20 01:43:24;;;;;;;34.30;15.50;;;14.80;52.60;;;;;;5073793;28;20823;-76
2021/07/20 01:45:54;;;;;;;27.20;14.95;;;14.80;52.00;;;;;;5079558;28;20403;-75
2021/07/20 01:48:23;;;;;;;31.48;15.52;;;14.80;52.00;;;;;;5085817;28;20379;-76
2021/07/20 01:50:49;;;;;;;28.67;15.80;;;14.80;51.70;;;;;;5074629;28;20399;-75
2021/07/20 01:53:16;;;;;;;31.27;15.88;;;14.80;51.60;;;;;;5089131;28;20387;-75
2021/07/20 01:55:41;;;;;;;31.05;15.88;;;14.70;52.00;;;;;;5086161;28;20395;-75
2021/07/20 01:58:07;;;;;;;36.05;16.30;;;14.70;52.90;;;;;;5082482;28;20452;-77
2021/07/20 02:00:33;;;;;;;26.63;16.08;;;14.60;53.10;;;;;;5071857;28;20420;-76
2021/07/20 02:08:27;;;;;;;31.65;16.00;;;14.40;55.60;;;;;;5071655;28;20391;-76
2021/07/20 02:11:01;;;;;;;28.98;15.80;;;14.40;54.80;;;;;;5071468;28;20375;-75
2021/07/20 02:13:29;;;;;;;32.25;16.30;;;14.40;54.80;;;;;;5071824;28;20453;-75
2021/07/20 02:15:56;;;;;;;34.60;16.35;;;14.40;55.20;;;;;;5071252;28;20384;-76
2021/07/20 02:18:27;;;;;;;32.20;16.70;;;14.30;56.10;;;;;;5071225;28;20536;-76
2021/07/20 02:20:53;;;;;;;25.90;15.30;;;14.30;55.20;;;;;;5070229;28;20437;-75
2021/07/20 02:23:19;;;;;;;32.70;17.52;;;14.20;55.90;;;;;;5071208;28;20390;-75
2021/07/20 02:25:47;;;;;;;30.27;16.20;;;14.10;57.40;;;;;;5071201;28;20396;-76
2021/07/20 02:28:14;;;;;;;31.63;17.15;;;14.00;58.50;;;;;;5068370;28;20397;-76
2021/07/20 02:30:41;;;;;;;29.85;16.25;;;14.10;58.30;;;;;;5051298;28;20377;-75
2021/07/20 02:33:07;;;;;;;31.02;16.30;;;14.10;58.30;;;;;;5051070;28;20796;-76
2021/07/20 02:35:33;;;;;;;34.95;17.23;;;14.10;59.10;;;;;;5065407;28;20396;-77
2021/07/20 02:38:00;;;;;;;33.10;17.67;;;14.20;57.20;;;;;;5071291;28;20379;-76
2021/07/20 02:40:27;;;;;;;38.00;17.80;;;14.20;56.90;;;;;;5069735;28;20488;-76
2021/07/20 02:42:55;;;;;;;32.80;16.30;;;14.30;55.90;;;;;;5071018;28;20376;-76
2021/07/20 02:45:21;;;;;;;29.30;16.65;;;14.40;55.30;;;;;;5069838;28;20399;-75
2021/07/20 02:47:49;;;;;;;35.67;16.80;;;14.40;55.50;;;;;;5071247;28;20382;-76
2021/07/20 02:50:16;;;;;;;31.85;16.08;;;14.30;56.10;;;;;;5071121;28;20476;-76
2021/07/20 02:52:44;;;;;;;36.58;16.67;;;14.30;57.40;;;;;;5071101;28;20387;-75
2021/07/20 02:55:12;;;;;;;33.05;16.58;;;14.30;58.70;;;;;;5070404;28;20484;-76
2021/07/20 02:57:38;;;;;;;29.27;16.10;;;14.20;59.00;;;;;;5070676;28;20733;-75
2021/07/20 03:00:10;;;;;;;36.95;18.08;;;14.20;58.60;;;;;;5071123;28;20777;-75
2021/07/20 03:02:37;;;;;;;35.28;17.63;;;14.10;58.60;;;;;;5069910;28;20940;-75
2021/07/20 03:05:05;;;;;;;36.55;17.58;;;14.10;58.80;;;;;;5070843;28;20980;-75
2021/07/20 03:07:33;;;;;;;33.60;18.20;;;14.00;58.50;;;;;;5072030;28;20418;-76
2021/07/20 03:10:00;;;;;;;30.13;16.25;;;14.00;58.20;;;;;;5071079;28;20380;-76
2021/07/20 03:12:27;;;;;;;37.27;17.13;;;14.00;58.10;;;;;;5070734;28;20802;-75
2021/07/20 03:14:54;;;;;;;37.33;16.70;;;13.90;58.30;;;;;;5070448;28;20379;-75
2021/07/20 03:19:53;;;;;;;32.65;16.35;;;13.90;59.00;;;;;;5068903;28;20413;-71
2021/07/20 03:22:23;;;;;;;32.88;17.60;;;13.80;59.20;;;;;;5069708;28;20847;-71
2021/07/20 03:24:50;;;;;;;31.75;16.63;;;13.80;60.00;;;;;;5075463;28;20882;-71
2021/07/20 03:27:16;;;;;;;34.33;17.63;;;13.70;59.80;;;;;;5079712;28;20558;-71
2021/07/20 03:29:43;;;;;;;34.85;16.95;;;13.60;62.90;;;;;;5069915;28;20398;-71
2021/07/20 03:32:10;;;;;;;33.03;16.15;;;13.60;63.40;;;;;;5069657;28;20425;-71
2021/07/20 03:34:37;;;;;;;35.47;17.52;;;13.60;64.10;;;;;;5069954;28;20404;-70
2021/07/20 03:37:03;;;;;;;34.92;17.67;;;13.60;64.60;;;;;;5069598;28;20427;-70
2021/07/20 03:39:29;;;;;;;36.22;17.45;;;13.60;64.80;;;;;;5070098;28;20380;-71
2021/07/20 03:41:55;;;;;;;34.10;16.48;;;13.60;64.70;;;;;;5069932;28;20536;-71
2021/07/20 03:44:21;;;;;;;31.55;17.13;;;13.60;63.80;;;;;;5070215;28;20494;-71
2021/07/20 03:46:47;;;;;;;35.47;17.87;;;13.50;64.20;;;;;;5070369;28;20461;-69
2021/07/20 03:49:13;;;;;;;34.17;17.10;;;13.50;65.20;;;;;;5069961;28;20827;-70
2021/07/20 03:51:41;;;;;;;35.25;16.75;;;13.40;64.70;;;;;;5070068;28;20909;-69
2021/07/20 03:54:08;;;;;;;32.97;16.60;;;13.50;64.30;;;;;;5070009;28;20848;-69
2021/07/20 03:56:36;;;;;;;34.07;18.13;;;13.60;61.80;;;;;;5090011;28;20504;-69
2021/07/20 03:59:08;;;;;;;35.42;17.10;;;13.70;61.00;;;;;;5093956;28;20416;-69
2021/07/20 04:01:38;;;;;;;33.38;17.13;;;13.60;61.50;;;;;;5094168;28;20381;-69
2021/07/20 04:04:08;;;;;;;31.50;16.27;;;13.80;60.50;;;;;;5094171;28;20394;-70
2021/07/20 04:06:36;;;;;;;38.25;17.70;;;13.80;59.00;;;;;;5075277;28;20751;-70
2021/07/20 04:09:02;;;;;;;40.63;18.33;;;13.90;58.50;;;;;;5055680;28;20436;-69
2021/07/20 04:11:28;;;;;;;37.50;17.77;;;13.90;57.90;;;;;;5073374;28;20483;-69
2021/07/20 04:13:54;;;;;;;37.53;17.87;;;13.90;57.70;;;;;;5073617;28;20536;-69
2021/07/20 04:16:23;;;;;;;34.65;17.55;;;13.80;58.40;;;;;;5073613;28;20387;-69
2021/07/20 04:18:49;;;;;;;37.10;17.27;;;13.70;58.80;;;;;;5073486;28;20384;-69
2021/07/20 04:21:17;;;;;;;34.93;17.17;;;13.80;59.30;;;;;;5073298;28;20398;-69
2021/07/20 04:23:44;;;;;;;34.55;17.45;;;13.80;59.10;;;;;;5073281;28;20813;-69
2021/07/20 04:26:12;;;;;;;37.85;18.65;;;13.90;58.30;;;;;;5087078;28;20898;-70
2021/07/20 04:28:38;;;;;;;36.58;17.45;;;14.00;56.30;;;;;;5073094;28;20848;-70
2021/07/20 04:31:06;;;;;;;34.83;17.52;;;14.00;55.50;;;;;;5072721;28;20474;-70
2021/07/20 04:33:34;;;;;;;33.75;17.13;;;14.10;55.20;;;;;;5055111;28;20391;-70
2021/07/20 04:36:00;;;;;;;32.33;16.98;;;14.10;55.00;;;;;;5073368;28;20419;-70
2021/07/20 04:38:29;;;;;;;37.15;18.17;;;14.10;55.20;;;;;;5073004;28;20399;-70
2021/07/20 04:40:56;;;;;;;36.65;17.52;;;14.10;55.20;;;;;;5072672;28;20396;-70
2021/07/20 04:43:22;;;;;;;35.45;17.50;;;14.10;54.90;;;;;;5072884;28;20380;-70
2021/07/20 04:45:52;;;;;;;33.10;17.10;;;14.10;54.80;;;;;;5073049;28;20394;-70
2021/07/20 04:48:19;;;;;;;38.53;17.30;;;14.10;54.20;;;;;;5080091;28;20389;-70
2021/07/20 04:50:45;;;;;;;39.45;17.50;;;14.10;54.30;;;;;;5093114;28;20378;-73
2021/07/20 04:53:13;;;;;;;38.75;17.70;;;14.10;54.50;;;;;;5093191;28;20400;-71
2021/07/20 04:55:40;;;;;;;40.38;19.30;;;14.20;54.50;;;;;;5082527;28;20775;-68
2021/07/20 04:58:06;;;;;;;35.40;17.63;;;14.20;54.20;;;;;;5072843;28;20376;-68
2021/07/20 05:00:33;;;;;;;46.20;19.35;;;14.20;54.30;;;;;;5072753;28;20395;-68
2021/07/20 05:03:01;;;;;;;37.25;18.63;;;14.30;53.70;;;;;;5072787;28;20380;-68
2021/07/20 05:05:30;;;;;;;39.40;18.20;;;14.40;53.20;;;;;;5081211;28;20402;-68
2021/07/20 05:07:58;;;;;;;36.85;17.23;;;14.50;52.50;;;;;;5092184;28;20371;-68
2021/07/20 05:10:24;;;;;;;39.63;18.73;;;14.60;51.60;;;;;;5092376;28;20469;-68
2021/07/20 05:12:50;;;;;;;38.05;18.23;;;14.60;50.90;;;;;;5092902;28;20406;-68
2021/07/20 05:15:18;;;;;;;37.10;17.42;;;14.70;50.20;;;;;;5085388;28;20838;-69
2021/07/20 05:17:44;;;;;;;115.53;64.97;;;14.70;50.50;;;;;;5072252;28;20408;-69
2021/07/20 05:20:16;;;;;;;43.47;21.40;;;14.80;50.50;;;;;;5072564;28;20399;-69
2021/07/20 05:22:43;;;;;;;44.25;24.75;;;14.90;49.80;;;;;;5072298;28;20404;-68
2021/07/20 05:25:10;;;;;;;42.97;20.65;;;14.90;48.60;;;;;;5077205;28;20441;-68
2021/07/20 05:27:41;;;;;;;54.60;23.73;;;15.00;48.60;;;;;;5078915;28;20387;-69
2021/07/20 05:30:07;;;;;;;34.10;17.80;;;15.00;48.60;;;;;;5071769;28;20379;-69
2021/07/20 05:32:36;;;;;;;36.93;17.40;;;15.10;47.60;;;;;;5072228;28;20387;-69
2021/07/20 05:35:04;;;;;;;42.67;18.02;;;15.20;47.20;;;;;;5072839;28;20404;-69
2021/07/20 05:37:35;;;;;;;39.90;18.10;;;15.20;46.80;;;;;;5071816;28;20410;-69
2021/07/20 05:40:02;;;;;;;41.85;17.70;;;15.20;46.80;;;;;;5071758;28;20906;-69
2021/07/20 05:42:28;;;;;;;34.17;18.67;;;15.20;46.90;;;;;;5071426;28;20473;-69
2021/07/20 05:44:54;;;;;;;38.13;18.70;;;15.10;47.30;;;;;;5071851;28;20474;-69
2021/07/20 05:47:20;;;;;;;36.78;17.60;;;15.10;47.80;;;;;;5071132;28;20414;-69
2021/07/20 05:49:46;;;;;;;39.70;19.00;;;15.10;47.80;;;;;;5071423;28;20384;-69
2021/07/20 05:52:14;;;;;;;38.73;18.70;;;15.20;47.90;;;;;;5070994;28;20387;-69
2021/07/20 05:54:42;;;;;;;36.35;18.13;;;15.20;47.50;;;;;;5086141;28;20394;-69
2021/07/20 05:57:08;;;;;;;39.95;19.08;;;15.30;46.90;;;;;;5091456;28;20390;-69
2021/07/20 05:59:37;;;;;;;40.22;18.90;;;15.40;46.40;;;;;;5091583;28;20394;-69
2021/07/20 06:02:03;;;;;;;39.63;18.90;;;15.40;46.40;;;;;;5073324;28;20447;-69
2021/07/20 06:04:30;;;;;;;38.58;20.40;;;15.50;46.10;;;;;;5059870;28;20911;-69
2021/07/20 06:07:02;;;;;;;39.85;19.90;;;15.60;45.10;;;;;;5071051;28;20423;-69
2021/07/20 06:09:28;;;;;;;41.80;18.73;;;15.70;45.10;;;;;;5071295;28;20372;-71
2021/07/20 06:11:55;;;;;;;39.78;19.98;;;15.80;44.20;;;;;;5070954;28;20380;-71
2021/07/20 06:14:22;;;;;;;34.97;18.10;;;15.90;43.90;;;;;;5073031;28;20476;-70
2021/07/20 06:16:48;;;;;;;37.43;19.00;;;15.90;43.60;;;;;;5071251;28;20674;-72
2021/07/20 06:19:14;;;;;;;40.20;19.20;;;16.00;43.70;;;;;;5070856;28;20392;-73
2021/07/20 06:21:42;;;;;;;36.10;19.07;;;16.10;43.40;;;;;;5069891;28;20379;-72
2021/07/20 06:24:11;;;;;;;37.30;19.63;;;16.20;42.50;;;;;;5069865;28;20453;-72
2021/07/20 06:26:38;;;;;;;39.70;18.35;;;16.30;42.20;;;;;;5063575;28;20399;-72
2021/07/20 06:29:06;;;;;;;44.22;19.13;;;16.40;41.70;;;;;;5070275;28;20399;-72
2021/07/20 06:31:32;;;;;;;40.80;19.43;;;16.40;41.70;;;;;;5070090;28;20742;-72
2021/07/20 06:33:58;;;;;;;37.42;18.65;;;16.40;42.10;;;;;;5044390;28;20473;-72
2021/07/20 06:36:25;;;;;;;44.40;19.13;;;16.40;41.80;;;;;;5067642;28;20439;-72
2021/07/20 06:38:53;;;;;;;40.70;18.80;;;16.60;41.30;;;;;;5058818;28;20828;-72
2021/07/20 06:41:19;;;;;;;37.60;19.08;;;16.70;40.60;;;;;;5054871;28;20892;-72
2021/07/20 06:43:46;;;;;;;38.00;19.23;;;16.80;40.00;;;;;;5062332;28;20784;-72
2021/07/20 06:46:13;;;;;;;37.53;19.15;;;16.90;39.80;;;;;;5070208;28;20395;-72
2021/07/20 06:48:43;;;;;;;39.60;19.42;;;16.90;39.90;;;;;;5063066;28;20384;-72
2021/07/20 06:51:09;;;;;;;36.23;18.40;;;16.90;39.60;;;;;;5070505;28;20466;-70
2021/07/20 06:53:35;;;;;;;38.87;19.47;;;17.00;39.90;;;;;;5062835;28;20469;-70
2021/07/20 06:56:02;;;;;;;45.80;18.13;;;17.10;39.50;;;;;;5070139;28;20383;-72
2021/07/20 06:58:29;;;;;;;38.17;18.33;;;17.10;38.80;;;;;;5066934;28;20401;-71
2021/07/20 07:00:58;;;;;;;37.15;17.50;;;17.00;39.70;;;;;;5090933;28;20382;-70
2021/07/20 07:03:48;;;;;;;37.40;18.83;;;17.10;39.40;;;;;;5067174;28;20495;-69
2021/07/20 07:06:15;;;;;;;40.30;18.98;;;17.30;39.10;;;;;;5068702;28;20376;-70
2021/07/20 07:08:42;;;;;;;34.60;17.35;;;17.20;38.50;;;;;;5066349;28;20397;-70
2021/07/20 07:11:07;;;;;;;38.28;18.48;;;17.20;38.80;;;;;;5066771;28;21002;-69
2021/07/20 07:13:35;;;;;;;38.55;17.80;;;17.20;39.30;;;;;;5064068;28;20486;-71
2021/07/20 07:16:01;;;;;;;37.13;18.25;;;17.30;39.30;;;;;;5069952;28;20700;-71
2021/07/20 07:18:28;;;;;;;32.95;17.63;;;17.40;38.90;;;;;;5076948;28;20395;-70
2021/07/20 07:20:56;;;;;;;35.35;17.35;;;17.40;38.50;;;;;;5069969;28;20434;-70
2021/07/20 07:23:22;;;;;;;32.45;17.23;;;17.50;38.50;;;;;;5061585;28;20384;-71
2021/07/20 07:25:50;;;;;;;38.83;18.20;;;17.60;37.50;;;;;;5058049;28;20515;-68
2021/07/20 07:28:18;;;;;;;38.08;18.48;;;17.60;37.50;;;;;;5065469;28;20397;-69
2021/07/20 07:30:44;;;;;;;84.72;36.97;;;17.60;37.60;;;;;;5058288;28;20751;-70
2021/07/20 07:33:10;;;;;;;35.72;18.25;;;17.80;37.60;;;;;;5069308;28;20379;-70
2021/07/20 07:35:36;;;;;;;39.85;18.45;;;18.00;37.10;;;;;;5064411;28;20458;-70
2021/07/20 07:38:02;;;;;;;36.25;18.67;;;18.00;36.10;;;;;;5088387;28;20398;-70
2021/07/20 07:40:29;;;;;;;41.45;18.60;;;17.90;36.00;;;;;;5074246;28;20401;-69
2021/07/20 07:42:58;;;;;;;41.70;19.42;;;17.90;36.30;;;;;;5065349;28;20836;-69
2021/07/20 07:45:24;;;;;;;36.15;18.40;;;18.10;36.30;;;;;;5065086;28;20413;-69
2021/07/20 07:47:50;;;;;;;39.87;19.13;;;18.20;36.00;;;;;;5055464;28;20981;-71
2021/07/20 07:50:17;;;;;;;36.30;19.23;;;18.40;34.90;;;;;;5065413;28;20479;-70
2021/07/20 07:52:43;;;;;;;40.35;18.58;;;18.50;34.20;;;;;;5072663;28;20391;-70
2021/07/20 07:55:10;;;;;;;42.97;18.77;;;18.70;34.30;;;;;;5076702;28;20477;-70
2021/07/20 07:57:38;;;;;;;33.20;18.23;;;18.80;32.90;;;;;;5067900;28;20399;-70
2021/07/20 08:00:06;;;;;;;34.60;17.98;;;18.90;33.70;;;;;;5065443;28;20423;-70
2021/07/20 08:02:35;;;;;;;40.67;19.25;;;18.90;33.00;;;;;;5072168;28;20408;-70
2021/07/20 08:05:02;;;;;;;33.63;18.42;;;19.30;32.70;;;;;;5061646;28;20405;-69
2021/07/20 08:07:29;;;;;;;33.97;17.17;;;19.40;31.50;;;;;;5063688;28;20895;-72
2021/07/20 08:09:57;;;;;;;34.83;16.80;;;19.30;32.20;;;;;;5061649;28;20705;-73
2021/07/20 08:12:24;;;;;;;33.28;15.80;;;19.50;31.30;;;;;;5072529;28;20395;-74
2021/07/20 08:14:50;;;;;;;36.78;17.30;;;19.60;30.50;;;;;;5088849;28;20468;-73
2021/07/20 08:17:16;;;;;;;33.00;16.38;;;19.70;30.00;;;;;;5082850;28;20400;-71
2021/07/20 08:19:43;;;;;;;31.70;16.60;;;19.70;30.00;;;;;;5055418;28;20832;-71
2021/07/20 08:22:14;;;;;;;35.97;16.60;;;19.70;29.80;;;;;;5073506;28;20803;-72
2021/07/20 08:24:46;;;;;;;30.23;16.77;;;19.90;29.50;;;;;;5077910;28;20411;-70
2021/07/20 08:27:13;;;;;;;32.30;16.92;;;20.20;28.90;;;;;;5073150;28;20391;-70
2021/07/20 08:29:44;;;;;;;32.90;15.68;;;20.10;28.30;;;;;;5058408;28;20378;-72
2021/07/20 08:32:12;;;;;;;34.65;15.50;;;19.90;28.50;;;;;;5053263;28;20399;-74
2021/07/20 08:34:49;;;;;;;31.42;16.60;;;19.70;29.60;;;;;;5067512;28;20387;-72
2021/07/20 08:37:17;;;;;;;26.45;14.75;;;19.60;29.90;;;;;;5071691;28;20391;-72
2021/07/20 08:39:47;;;;;;;35.30;15.57;;;19.70;29.60;;;;;;5073235;28;20482;-72
2021/07/20 08:42:18;;;;;;;34.88;15.68;;;19.80;29.10;;;;;;5072598;28;20387;-72
2021/07/20 08:45:05;;;;;;;29.90;15.40;;;19.80;29.10;;;;;;5072036;28;20443;-71
2021/07/20 08:48:16;;;;;;;26.42;14.65;;;19.60;29.40;;;;;;5072554;28;20380;-71
2021/07/20 08:50:51;;;;;;;28.25;13.75;;;19.80;29.10;;;;;;5041750;28;20534;-71
2021/07/20 08:53:34;;;;;;;30.20;13.98;;;20.00;28.10;;;;;;5073099;28;20444;-72
2021/07/20 08:56:02;;;;;;;26.48;13.73;;;20.00;27.50;;;;;;5072581;28;20898;-72
2021/07/20 08:58:34;;;;;;;28.38;13.30;;;20.20;27.70;;;;;;5072211;28;20388;-72
2021/07/20 09:01:23;;;;;;;19.38;12.55;;;20.50;27.70;;;;;;5058282;28;20393;-72
2021/07/20 09:04:10;;;;;;;25.75;13.25;;;20.70;24.70;;;;;;5060326;28;20898;-72
2021/07/20 09:06:45;;;;;;;30.00;14.30;;;20.80;25.30;;;;;;5083739;28;20478;-71
2021/07/20 09:09:14;;;;;;;26.77;13.93;;;21.00;25.00;;;;;;5062477;28;20381;-72
2021/07/20 09:11:48;;;;;;;21.45;12.90;;;21.10;24.40;;;;;;5055600;28;20388;-72
2021/07/20 09:14:24;;;;;;;25.13;13.15;;;21.00;23.90;;;;;;5072565;28;20884;-72
2021/07/20 09:16:52;;;;;;;24.87;13.00;;;20.90;23.50;;;;;;5078542;28;20443;-72
2021/07/20 09:19:39;;;;;;;30.05;14.30;;;20.50;24.10;;;;;;5108354;22;20446;-76
2021/07/20 09:22:16;;;;;;;26.30;13.90;;;20.40;24.90;;;;;;5076542;28;20385;-77
2021/07/20 09:24:50;;;;;;;25.60;13.30;;;20.60;25.10;;;;;;5092972;28;20850;-74
2021/07/20 09:27:39;;;;;;;28.80;13.80;;;20.60;24.60;;;;;;5073943;28;20386;-74
2021/07/20 09:30:12;;;;;;;21.88;13.48;;;21.10;23.80;;;;;;5071086;28;20448;-75
2021/07/20 09:33:00;;;;;;;21.67;13.45;;;21.30;22.50;;;;;;5038179;28;20393;-75
2021/07/20 09:35:32;;;;;;;23.20;12.27;;;21.40;22.20;;;;;;5064623;28;20756;-76
2021/07/20 09:38:08;;;;;;;22.70;11.90;;;21.70;20.70;;;;;;5072021;28;20395;-75
2021/07/20 09:40:44;;;;;;;19.73;12.35;;;21.30;20.80;;;;;;5071998;28;20472;-76
2021/07/20 09:43:25;;;;;;;17.70;11.95;;;21.30;21.00;;;;;;5073420;28;20449;-76
2021/07/20 09:46:00;;;;;;;21.73;12.10;;;21.30;20.90;;;;;;5076169;28;20392;-75
2021/07/20 09:48:32;;;;;;;26.10;14.00;;;20.80;21.90;;;;;;5054448;28;20399;-75
2021/07/20 09:51:24;;;;;;;24.80;12.13;;;20.50;23.10;;;;;;5075539;28;20799;-76
2021/07/20 09:54:16;;;;;;;24.25;12.77;;;20.30;23.40;;;;;;5074632;28;20387;-75
2021/07/20 09:57:19;;;;;;;21.95;12.60;;;20.30;23.40;;;;;;5047020;28;20483;-75
2021/07/20 10:00:05;;;;;;;27.35;13.45;;;20.40;23.20;;;;;;5055712;28;20419;-74
2021/07/20 10:03:03;;;;;;;21.42;12.05;;;20.70;23.40;;;;;;5071322;28;20388;-76
2021/07/20 10:05:48;;;;;;;22.70;11.85;;;21.00;21.70;;;;;;5063755;28;20435;-75
2021/07/20 10:08:42;;;;;;;20.90;12.30;;;21.20;21.40;;;;;;5071533;28;20387;-75
2021/07/20 10:11:39;;;;;;;18.65;11.95;;;21.20;19.80;;;;;;5071137;28;20391;-76
2021/07/20 10:14:39;;;;;;;19.88;11.27;;;21.00;20.40;;;;;;5071291;28;20415;-76
2021/07/20 10:17:33;;;;;;;25.38;12.93;;;20.90;21.20;;;;;;5071340;28;20760;-75
2021/07/20 10:20:04;;;;;;;19.13;11.45;;;21.30;20.40;;;;;;5070321;28;20435;-76
2021/07/20 10:23:03;;;;;;;22.75;11.23;;;21.50;20.00;;;;;;5071961;28;20433;-76
2021/07/20 10:25:36;;;;;;;19.65;12.00;;;21.50;19.00;;;;;;5066609;28;20753;-76
2021/07/20 10:28:11;;;;;;;18.77;11.32;;;21.70;18.20;;;;;;5066158;28;20422;-77
2021/07/20 10:30:42;;;;;;;20.45;11.30;;;21.60;17.80;;;;;;5064460;28;20446;-74
2021/07/20 10:33:13;;;;;;;20.20;12.18;;;21.80;17.90;;;;;;5068438;28;20399;-74
2021/07/20 10:35:49;;;;;;;19.65;11.98;;;21.90;17.40;;;;;;5065537;28;20392;-75
2021/07/20 10:38:22;;;;;;;22.05;12.38;;;22.30;16.90;;;;;;5053410;28;20408;-75
2021/07/20 10:40:51;;;;;;;19.67;11.15;;;22.60;16.40;;;;;;5070921;28;20899;-75
2021/07/20 10:43:31;;;;;;;18.13;11.00;;;22.80;15.10;;;;;;5071059;28;20394;-76
2021/07/20 10:45:59;;;;;;;19.50;10.10;;;23.20;14.70;;;;;;5069052;28;20407;-75
2021/07/20 10:48:30;;;;;;;20.27;10.98;;;23.10;14.10;;;;;;5070678;28;20406;-76
2021/07/20 10:51:00;;;;;;;17.77;10.65;;;23.00;15.00;;;;;;5070881;28;20387;-75
2021/07/20 10:53:59;;;;;;;17.92;10.63;;;23.00;14.90;;;;;;5070854;28;20388;-75
2021/07/20 10:56:50;;;;;;;16.35;10.88;;;22.90;15.60;;;;;;5053235;28;20388;-75
2021/07/20 10:59:18;;;;;;;17.02;11.02;;;22.90;16.30;;;;;;5063521;28;20414;-77
2021/07/20 11:02:06;;;;;;;15.45;10.60;;;23.00;15.40;;;;;;5067178;28;20400;-75
2021/07/20 11:04:53;;;;;;;17.03;11.50;;;23.20;15.60;;;;;;5065839;28;20419;-76
2021/07/20 11:07:34;;;;;;;16.60;10.32;;;23.40;16.00;;;;;;5063833;28;20391;-75
2021/07/20 11:10:12;;;;;;;16.67;11.27;;;23.90;15.20;;;;;;5072104;28;20390;-75
2021/07/20 11:12:44;;;;;;;20.02;11.02;;;24.00;13.70;;;;;;5052714;28;20396;-75
2021/07/20 11:15:10;;;;;;;18.35;10.98;;;23.90;13.20;;;;;;5071854;28;20379;-77
2021/07/20 11:17:38;;;;;;;16.73;10.73;;;23.00;14.10;;;;;;5070249;28;20478;-76
2021/07/20 11:20:15;;;;;;;18.75;11.07;;;22.70;14.70;;;;;;5062855;28;20409;-76
2021/07/20 11:22:41;;;;;;;18.15;10.50;;;22.30;15.60;;;;;;5069146;28;20387;-75
2021/07/20 11:25:09;;;;;;;18.73;11.40;;;22.10;17.00;;;;;;5052700;28;20403;-76
2021/07/20 11:27:39;;;;;;;14.20;10.95;;;22.00;16.10;;;;;;5064886;28;20914;-76
2021/07/20 11:30:16;;;;;;;22.25;10.30;;;22.00;16.30;;;;;;5052069;28;20377;-75
2021/07/20 11:33:06;;;;;;;19.97;11.30;;;22.00;16.50;;;;;;5057568;28;20578;-74
2021/07/20 11:35:38;;;;;;;18.30;11.32;;;22.10;15.80;;;;;;5051886;28;20405;-74
2021/07/20 11:38:16;;;;;;;15.20;10.70;;;22.50;14.40;;;;;;5069590;28;20445;-75
2021/07/20 11:40:52;;;;;;;17.60;10.68;;;22.70;14.60;;;;;;5051708;28;20396;-75
2021/07/20 11:43:32;;;;;;;19.77;11.38;;;22.60;14.60;;;;;;5069743;28;20403;-76
2021/07/20 11:46:05;;;;;;;15.52;10.68;;;22.70;13.90;;;;;;5070219;28;20453;-75
2021/07/20 11:48:40;;;;;;;18.48;10.55;;;22.80;14.40;;;;;;5064901;28;20481;-75
2021/07/20 11:51:12;;;;;;;15.50;10.82;;;22.40;15.40;;;;;;5057737;28;20385;-73
2021/07/20 11:54:24;;;;;;;16.27;11.30;;;22.30;15.70;;;;;;5044810;28;20411;-74
2021/07/20 11:56:58;;;;;;;18.98;11.18;;;22.40;15.60;;;;;;5057743;28;20391;-73
2021/07/20 11:59:55;;;;;;;17.02;10.52;;;22.40;15.50;;;;;;5069688;28;20787;-75
2021/07/20 12:02:59;;;;;;;16.23;10.20;;;22.30;15.30;;;;;;5051810;28;20396;-73
2021/07/20 12:05:39;;;;;;;20.35;11.05;;;22.30;15.20;;;;;;5069324;28;20848;-74
2021/07/20 12:08:19;;;;;;;14.63;10.63;;;22.50;15.40;;;;;;5069396;28;20748;-74
2021/07/20 12:11:09;;;;;;;18.40;10.65;;;22.70;15.00;;;;;;5069538;28;20380;-75
2021/07/20 12:13:36;;;;;;;18.90;10.63;;;23.10;14.50;;;;;;5069604;28;20387;-74
2021/07/20 12:16:10;;;;;;;14.68;10.25;;;23.10;14.00;;;;;;5069450;28;20391;-74
2021/07/20 12:18:47;;;;;;;20.85;11.10;;;23.10;14.60;;;;;;5072030;28;20387;-73
2021/07/20 12:21:15;;;;;;;19.38;10.55;;;22.60;14.70;;;;;;5072900;28;20394;-75
2021/07/20 12:23:41;;;;;;;16.25;11.10;;;22.70;15.00;;;;;;5048182;28;20396;-74
2021/07/20 12:26:08;;;;;;;19.13;10.48;;;22.90;14.90;;;;;;5069893;28;20395;-75
2021/07/20 12:28:40;;;;;;;17.40;10.65;;;23.20;15.00;;;;;;5067687;28;20381;-75
2021/07/20 12:31:07;;;;;;;18.35;10.57;;;23.00;14.70;;;;;;5053343;28;20391;-75
2021/07/20 12:33:33;;;;;;;16.63;10.90;;;23.10;14.10;;;;;;5058235;28;20401;-74
2021/07/20 12:35:58;;;;;;;18.10;10.52;;;23.20;14.20;;;;;;5074625;28;20482;-74
2021/07/20 12:38:25;;;;;;;20.08;10.10;;;23.50;14.50;;;;;;5068398;28;20728;-75
2021/07/20 12:40:50;;;;;;;17.92;10.52;;;23.90;13.30;;;;;;5067110;28;20787;-76
2021/07/20 12:43:17;;;;;;;18.67;10.15;;;23.90;12.30;;;;;;5073148;28;20391;-74
2021/07/20 12:45:44;;;;;;;15.50;9.98;;;24.00;11.80;;;;;;5072817;28;20401;-74
2021/07/20 12:48:27;;;;;;;18.75;9.68;;;23.90;14.20;;;;;;5055020;28;20399;-73
2021/07/20 12:50:55;;;;;;;15.93;10.18;;;23.40;12.60;;;;;;5053706;28;20377;-75
2021/07/20 12:53:21;;;;;;;20.40;11.20;;;23.20;14.10;;;;;;5052964;28;20382;-73